Blue Bay — V2CE6 — position and weather

sailwx.info

Track history (hours):
 
Tides and Currents Weather Stations Pressure Air Temp Water Temp Dewpoint Dewpoint Depression Visibility Wind Speed Wind Dir Waves Ship Positions

Blue Bay

Last reported at 2017-Jun-29 01:58 UTC. Time now 2017-Jun-29 02:23 UTC.
Position N 53°20' E 008°30'.

Length 90 m; draft 5.6 m.

Type: Cargo ship. MMSI: 304519000.

Date/timePositionNaut miles runAvg speedWind from/ knotsBaromVisibWave heightAir tempDewpointWater temp
2017-Jun-29 01:58N 53°20' E 008°30'0 0.0
2017-Jun-29 01:28N 53°20' E 008°30'0 0.0
2017-Jun-29 00:58N 53°20' E 008°30'0 0.0
2017-Jun-29 00:28N 53°20' E 008°30'0 0.0
2017-Jun-28 23:58N 53°20' E 008°30'0 0.0
2017-Jun-28 23:28N 53°20' E 008°30'0 0.0
2017-Jun-28 22:58N 53°20' E 008°30'0 0.0
2017-Jun-28 22:28N 53°20' E 008°30'0 0.0
2017-Jun-28 21:58N 53°20' E 008°30'0 0.0
2017-Jun-28 21:28N 53°20' E 008°30'0 0.0
2017-Jun-28 20:58N 53°20' E 008°30'0 0.0
2017-Jun-28 20:28N 53°20' E 008°30'0 0.0
2017-Jun-28 19:58N 53°20' E 008°30'0 0.0
2017-Jun-28 19:28N 53°20' E 008°30'0 0.0
2017-Jun-28 18:58N 53°20' E 008°30'0 0.0
2017-Jun-28 18:28N 53°20' E 008°30'0 0.0
2017-Jun-28 17:58N 53°20' E 008°30'0 0.0
2017-Jun-28 17:28N 53°20' E 008°30'0 0.0
2017-Jun-28 16:58N 53°20' E 008°30'0 0.0
2017-Jun-28 16:25N 53°20' E 008°30'1 1.2
2017-Jun-28 16:00N 53°21' E 008°30'510.6
2017-Jun-28 15:31N 53°26' E 008°29'510.7
2017-Jun-28 15:00N 53°31' E 008°32'8 7.8
2017-Jun-28 14:00N 53°38' E 008°27'611.7
2017-Jun-28 13:30N 53°42' E 008°19'612.1
2017-Jun-28 13:00N 53°46' E 008°11'611.6
2017-Jun-28 12:31N 53°50' E 008°05'611.0
2017-Jun-28 12:00N 53°51' E 007°56'511.0
2017-Jun-28 11:30N 53°52' E 007°46'48 8.7
2017-Jun-28 06:01N 53°44' E 006°27'45 7.4
2017-Jun-28 00:00N 53°31' E 005°15'4 8.5
2017-Jun-27 23:30N 53°29' E 005°08'4 8.7
2017-Jun-27 22:59N 53°28' E 005°01'4 8.9
2017-Jun-27 22:30N 53°26' E 004°54'5 9.0
2017-Jun-27 22:00N 53°24' E 004°47'5 8.9
2017-Jun-27 21:30N 53°21' E 004°42'5 9.8
2017-Jun-27 20:59N 53°17' E 004°38'5 9.9
2017-Jun-27 20:30N 53°13' E 004°34'510.3
2017-Jun-27 20:00N 53°08' E 004°30'510.7
2017-Jun-27 19:30N 53°03' E 004°25'510.7
2017-Jun-27 19:00N 52°59' E 004°21'510.8
2017-Jun-27 18:30N 52°54' E 004°18'510.7
2017-Jun-27 18:01N 52°49' E 004°14'510.8
2017-Jun-27 17:31N 52°45' E 004°08'510.9
2017-Jun-27 17:01N 52°41' E 004°02'611.0
2017-Jun-27 16:30N 52°37' E 003°56'510.7
2017-Jun-27 16:00N 52°33' E 003°49'610.3
2017-Jun-27 15:25N 52°29' E 003°43'11 9.6
2017-Jun-27 14:19N 52°21' E 003°30'14 8.6
2017-Jun-27 12:41N 52°11' E 003°14'8 7.9
2017-Jun-27 11:38N 52°05' E 003°05'1 7.7
2017-Jun-27 11:30N 52°04' E 003°04'13 7.1
2017-Jun-27 09:39N 51°54' E 002°50'1 7.7
2017-Jun-27 09:30N 51°54' E 002°49'4 8.0
2017-Jun-27 09:00N 51°51' E 002°45'4 8.4
2017-Jun-27 08:29N 51°47' E 002°40'4 8.8
2017-Jun-27 08:00N 51°44' E 002°36'5 9.2
2017-Jun-27 07:30N 51°41' E 002°31'5 9.7
2017-Jun-27 07:01N 51°37' E 002°26'5 9.9
2017-Jun-27 06:30N 51°33' E 002°21'510.1
2017-Jun-27 06:00N 51°29' E 002°16'510.6
2017-Jun-27 05:30N 51°24' E 002°11'510.7
2017-Jun-27 05:00N 51°20' E 002°08'510.1
2017-Jun-27 04:31N 51°15' E 002°05'510.3
2017-Jun-27 04:01N 51°12' E 001°59'510.4
2017-Jun-27 03:30N 51°09' E 001°52'510.9
2017-Jun-27 03:01N 51°05' E 001°45'611.6
2017-Jun-27 02:30N 51°01' E 001°39'612.0
2017-Jun-27 02:01N 50°56' E 001°33'611.9
2017-Jun-27 01:30N 50°51' E 001°28'611.1
2017-Jun-27 01:00N 50°46' E 001°24'510.1
2017-Jun-27 00:30N 50°42' E 001°20'6 9.8
2017-Jun-26 23:56N 50°38' E 001°14'4 9.4
2017-Jun-26 23:30N 50°35' E 001°10'5 9.7
2017-Jun-26 23:00N 50°32' E 001°04'8 9.6
2017-Jun-26 22:11N 50°27' E 000°54'2 9.8
2017-Jun-26 22:00N 50°26' E 000°51'5 9.7
2017-Jun-26 21:30N 50°25' E 000°44'5 9.1
2017-Jun-26 21:01N 50°24' E 000°37'4 8.7
2017-Jun-26 20:31N 50°23' E 000°30'4 8.1
2017-Jun-26 20:00N 50°22' E 000°24'4 7.7
2017-Jun-26 19:30N 50°21' E 000°18'4 7.3
2017-Jun-26 19:00N 50°20' E 000°13'4 7.1
2017-Jun-26 18:30N 50°19' E 000°08'3 7.0
2017-Jun-26 18:00N 50°18' E 000°02'3 6.7
2017-Jun-26 17:30N 50°17' W 000°03'3 6.6
2017-Jun-26 17:01N 50°16' W 000°08'3 6.7
2017-Jun-26 16:30N 50°15' W 000°13'4 6.9
2017-Jun-26 15:56N 50°14' W 000°19'3 6.7
2017-Jun-26 15:30N 50°14' W 000°23'3 6.7
2017-Jun-26 15:00N 50°13' W 000°28'3 6.9
2017-Jun-26 14:30N 50°12' W 000°33'8 7.5
2017-Jun-26 13:31N 50°10' W 000°45'4 8.6
2017-Jun-26 13:00N 50°09' W 000°51'5 9.5
2017-Jun-26 12:30N 50°07' W 000°58'510.3
2017-Jun-26 12:00N 50°06' W 001°06'611.3
2017-Jun-26 11:30N 50°05' W 001°15'612.1
2017-Jun-26 11:00N 50°03' W 001°24'612.7
2017-Jun-26 10:31N 50°01' W 001°33'713.5
2017-Jun-26 10:00N 49°59' W 001°43'713.7
2017-Jun-26 09:30N 49°58' W 001°54'713.7
2017-Jun-26 08:58N 49°56' W 002°05'913.0
2017-Jun-26 08:17N 49°54' W 002°18'312.5
2017-Jun-26 08:00N 49°53' W 002°23'612.1
2017-Jun-26 07:28N 49°51' W 002°33'711.4
2017-Jun-26 06:53N 49°49' W 002°43'411.1
2017-Jun-26 06:30N 49°48' W 002°49'510.6
2017-Jun-26 06:00N 49°46' W 002°56'610.2
2017-Jun-26 05:24N 49°42' W 003°05'4 9.8
2017-Jun-26 05:00N 49°40' W 003°10'5 9.5
2017-Jun-26 04:26N 49°38' W 003°17'22 8.1
2017-Jun-26 01:39N 49°27' W 003°47'1 7.3
2017-Jun-26 01:27N 49°26' W 003°49'5 7.5
2017-Jun-26 00:49N 49°24' W 003°55'3 7.2
2017-Jun-26 00:25N 49°22' W 003°59'3 7.2
2017-Jun-26 00:00N 49°21' W 004°03'4 7.3
2017-Jun-25 23:30N 49°19' W 004°08'4 7.5
2017-Jun-25 23:00N 49°17' W 004°13'4 7.7
2017-Jun-25 22:30N 49°15' W 004°18'5 8.0
2017-Jun-25 21:53N 49°12' W 004°24'3 8.5
2017-Jun-25 21:30N 49°11' W 004°29'4 8.8
2017-Jun-25 21:00N 49°08' W 004°35'5 9.3
2017-Jun-25 20:30N 49°06' W 004°41'5 9.6
2017-Jun-25 20:00N 49°04' W 004°47'910.2
2017-Jun-25 19:07N 48°59' W 004°59'110.3
2017-Jun-25 19:00N 48°59' W 005°00'611.0
2017-Jun-25 18:30N 48°56' W 005°08'611.1
2017-Jun-25 17:59N 48°53' W 005°16'510.9
2017-Jun-25 17:30N 48°51' W 005°22'611.6
2017-Jun-25 16:58N 48°47' W 005°31'  
2017-Jun-22 02:36N 39°51' W 009°26'110.0
2017-Jun-22 02:30N 39°50' W 009°27'2110.1
2017-Jun-22 00:28N 39°33' W 009°41'5 9.6
2017-Jun-21 23:57N 39°28' W 009°43'4 9.5
2017-Jun-21 23:30N 39°23' W 009°43'510.5
2017-Jun-21 23:00N 39°18' W 009°43'510.2
2017-Jun-21 22:30N 39°13' W 009°43'510.1
2017-Jun-21 22:01N 39°08' W 009°43'5 9.8
2017-Jun-21 21:31N 39°03' W 009°43'510.0
2017-Jun-21 21:00N 38°58' W 009°43'5 9.9
2017-Jun-21 20:30N 38°53' W 009°43'5 9.5
2017-Jun-21 20:00N 38°49' W 009°43'510.1
2017-Jun-21 19:30N 38°44' W 009°42'4 9.0
2017-Jun-21 19:00N 38°39' W 009°40'510.1
2017-Jun-21 18:30N 38°39' W 009°34'5 9.8
2017-Jun-21 18:00N 38°38' W 009°28'5 9.8
2017-Jun-21 17:30N 38°38' W 009°22'612.4
2017-Jun-21 17:00N 38°41' W 009°15'611.9
2017-Jun-21 16:30N 38°42' W 009°07'2 3.4
2017-Jun-21 15:57N 38°44' W 009°06'0 0.0
2017-Jun-21 15:30N 38°44' W 009°06'0 0.0
2017-Jun-21 15:00N 38°44' W 009°06'0 0.0
2017-Jun-21 14:30N 38°44' W 009°06'0 0.0
2017-Jun-21 13:30N 38°44' W 009°06'0 0.0
2017-Jun-21 13:00N 38°44' W 009°06'0 0.0
2017-Jun-21 12:30N 38°44' W 009°06'0 0.0
2017-Jun-21 12:00N 38°44' W 009°06'0 0.0
2017-Jun-21 11:30N 38°44' W 009°06'0 0.0
2017-Jun-21 11:00N 38°44' W 009°06'0 0.0
2017-Jun-21 10:30N 38°44' W 009°06'0 0.0
2017-Jun-21 09:51N 38°44' W 009°06'0 0.0
2017-Jun-21 09:27N 38°44' W 009°06'0 0.0
2017-Jun-21 09:00N 38°44' W 009°06'0 0.0
2017-Jun-21 08:27N 38°44' W 009°06'0 0.0
2017-Jun-21 08:00N 38°44' W 009°06'0 0.0
2017-Jun-21 07:30N 38°44' W 009°06'0 0.0
2017-Jun-21 07:00N 38°44' W 009°06'0 0.0
2017-Jun-21 06:30N 38°44' W 009°06'0 0.0
2017-Jun-21 06:00N 38°44' W 009°06'0 0.0
2017-Jun-21 05:30N 38°44' W 009°06'0 0.0
2017-Jun-21 05:00N 38°44' W 009°06'0 0.0
2017-Jun-21 04:27N 38°44' W 009°06'0 0.0
2017-Jun-21 04:00N 38°44' W 009°06'0 0.0
2017-Jun-21 03:30N 38°44' W 009°06'0 0.0
2017-Jun-21 02:57N 38°44' W 009°06'0 0.0
2017-Jun-21 02:24N 38°44' W 009°06'0 0.0
2017-Jun-21 02:00N 38°44' W 009°06'0 0.0
2017-Jun-21 01:30N 38°44' W 009°06'0 0.0
2017-Jun-21 01:00N 38°44' W 009°06'1 2.3
2017-Jun-21 00:30N 38°43' W 009°07'5 9.7
2017-Jun-20 23:59N 38°41' W 009°13'3 5.3
2017-Jun-20 23:30N 38°41' W 009°16'3 6.3
2017-Jun-20 23:00N 38°39' W 009°19'3 5.7
2017-Jun-20 22:30N 38°38' W 009°22'2 4.1
2017-Jun-20 22:00N 38°39' W 009°24'2 3.0
2017-Jun-20 21:30N 38°40' W 009°24'0 0.0
2017-Jun-20 21:00N 38°40' W 009°24'0 0.0
2017-Jun-20 20:30N 38°40' W 009°24'0 0.0
2017-Jun-20 20:00N 38°40' W 009°24'0 0.0
2017-Jun-20 19:30N 38°40' W 009°24'0 0.0
2017-Jun-20 19:00N 38°40' W 009°24'0 0.0
2017-Jun-20 18:30N 38°40' W 009°24'0 0.0
2017-Jun-20 18:00N 38°40' W 009°24'0 0.0
2017-Jun-20 17:30N 38°40' W 009°24'0 0.0
2017-Jun-20 17:00N 38°40' W 009°24'0 0.0
2017-Jun-20 16:30N 38°40' W 009°24'0 0.1
2017-Jun-20 16:00N 38°40' W 009°24'0 0.0
2017-Jun-20 15:30N 38°40' W 009°24'0 0.0
2017-Jun-20 15:00N 38°40' W 009°24'0 0.0
2017-Jun-20 14:30N 38°40' W 009°24'0 0.0
2017-Jun-20 13:30N 38°40' W 009°24'0 0.0
2017-Jun-20 13:00N 38°40' W 009°24'0 0.0
2017-Jun-20 12:30N 38°40' W 009°24'0 0.0
2017-Jun-20 12:00N 38°40' W 009°24'0 0.0
2017-Jun-20 11:30N 38°40' W 009°24'0 0.0
2017-Jun-20 11:00N 38°40' W 009°24'0 0.0
2017-Jun-20 10:30N 38°40' W 009°24'0 0.1
2017-Jun-20 10:00N 38°40' W 009°24'0 0.0
2017-Jun-20 09:30N 38°40' W 009°24'0 0.0
2017-Jun-20 08:57N 38°40' W 009°24'0 0.0
2017-Jun-20 08:30N 38°40' W 009°24'0 0.0
2017-Jun-20 08:00N 38°40' W 009°24'0 0.0
2017-Jun-20 07:30N 38°40' W 009°24'0 0.0
2017-Jun-20 07:00N 38°40' W 009°24'0 0.0
2017-Jun-20 06:30N 38°40' W 009°24'0 0.0
2017-Jun-20 06:00N 38°40' W 009°24'0 0.0
2017-Jun-20 05:30N 38°40' W 009°24'0 0.0
2017-Jun-20 05:00N 38°40' W 009°24'0 0.0
2017-Jun-20 04:30N 38°40' W 009°24'0 0.0
2017-Jun-20 04:00N 38°40' W 009°24'0 0.0
2017-Jun-20 03:30N 38°40' W 009°24'0 0.0
2017-Jun-20 03:00N 38°40' W 009°24'0 0.0
2017-Jun-20 02:30N 38°40' W 009°24'0 0.0
2017-Jun-20 02:00N 38°40' W 009°24'0 0.1
2017-Jun-20 01:30N 38°40' W 009°24'0 0.0
2017-Jun-20 01:00N 38°40' W 009°24'0 0.0
2017-Jun-20 00:30N 38°40' W 009°24'0 0.0
2017-Jun-20 00:00N 38°40' W 009°24'0 0.1
2017-Jun-19 23:30N 38°40' W 009°24'0 0.0
2017-Jun-19 23:00N 38°40' W 009°24'0 0.0
2017-Jun-19 22:30N 38°40' W 009°24'0 0.0
2017-Jun-19 22:00N 38°40' W 009°24'0 0.0
2017-Jun-19 21:30N 38°40' W 009°24'0 0.0
2017-Jun-19 21:00N 38°40' W 009°24'0 0.0
2017-Jun-19 20:30N 38°40' W 009°24'0 0.0
2017-Jun-19 20:00N 38°40' W 009°24'0 0.0
2017-Jun-19 19:30N 38°40' W 009°24'0 0.0
2017-Jun-19 19:00N 38°40' W 009°24'0 0.0
2017-Jun-19 18:30N 38°40' W 009°24'0 0.0
2017-Jun-19 18:00N 38°40' W 009°24'0 0.0
2017-Jun-19 17:30N 38°40' W 009°24'0 0.0
2017-Jun-19 17:00N 38°40' W 009°24'0 0.1
2017-Jun-19 16:30N 38°40' W 009°24'0 0.0
2017-Jun-19 16:00N 38°40' W 009°24'0 0.0
2017-Jun-19 15:30N 38°40' W 009°24'0 0.0
2017-Jun-19 15:00N 38°40' W 009°24'0 0.0
2017-Jun-19 14:00N 38°40' W 009°24'0 0.1
2017-Jun-19 13:30N 38°40' W 009°24'0 0.0
2017-Jun-19 13:00N 38°40' W 009°24'0 0.1
2017-Jun-19 12:30N 38°40' W 009°24'0 0.0
2017-Jun-19 12:00N 38°40' W 009°24'0 0.0
2017-Jun-19 11:30N 38°40' W 009°24'0 0.1
2017-Jun-19 11:00N 38°40' W 009°24'0 0.1
2017-Jun-19 10:30N 38°40' W 009°24'0 0.0
2017-Jun-19 10:00N 38°40' W 009°24'0 0.0
2017-Jun-19 09:30N 38°40' W 009°24'0 0.0
2017-Jun-19 09:00N 38°40' W 009°24'0 0.0
2017-Jun-19 08:30N 38°40' W 009°24'0 0.0
2017-Jun-19 08:00N 38°40' W 009°24'0 0.0
2017-Jun-19 07:30N 38°40' W 009°24'0 0.0
2017-Jun-19 07:00N 38°40' W 009°24'0 0.0
2017-Jun-19 06:30N 38°40' W 009°24'0 0.0
2017-Jun-19 06:00N 38°40' W 009°24'0 0.1
2017-Jun-19 05:30N 38°40' W 009°24'0 0.1
2017-Jun-19 05:00N 38°40' W 009°24'0 0.0
2017-Jun-19 04:30N 38°40' W 009°24'0 0.0
2017-Jun-19 04:00N 38°40' W 009°24'0 0.0
2017-Jun-19 03:30N 38°40' W 009°24'0 0.1
2017-Jun-19 03:00N 38°40' W 009°24'0 0.0
2017-Jun-19 02:30N 38°40' W 009°24'0 0.0
2017-Jun-19 02:00N 38°40' W 009°24'  
Track history (hours):
 
Tides and Currents Weather Stations Pressure Air Temp Water Temp Dewpoint Dewpoint Depression Visibility Wind Speed Wind Dir Waves Ship Positions

Blue Bay

Last reported at 2017-Jun-29 01:58 UTC. Time now 2017-Jun-29 02:23 UTC.
Position N 53°20' E 008°30'.

Length 90 m; draft 5.6 m.

Type: Cargo ship. MMSI: 304519000.

Date/timePositionNaut miles runAvg speedWind from/ knotsBaromVisibWave heightAir tempDewpointWater temp
2017-Jun-29 01:58N 53°20' E 008°30'0 0.0
2017-Jun-29 01:28N 53°20' E 008°30'0 0.0
2017-Jun-29 00:58N 53°20' E 008°30'0 0.0
2017-Jun-29 00:28N 53°20' E 008°30'0 0.0
2017-Jun-28 23:58N 53°20' E 008°30'0 0.0
2017-Jun-28 23:28N 53°20' E 008°30'0 0.0
2017-Jun-28 22:58N 53°20' E 008°30'0 0.0
2017-Jun-28 22:28N 53°20' E 008°30'0 0.0
2017-Jun-28 21:58N 53°20' E 008°30'0 0.0
2017-Jun-28 21:28N 53°20' E 008°30'0 0.0
2017-Jun-28 20:58N 53°20' E 008°30'0 0.0
2017-Jun-28 20:28N 53°20' E 008°30'0 0.0
2017-Jun-28 19:58N 53°20' E 008°30'0 0.0
2017-Jun-28 19:28N 53°20' E 008°30'0 0.0
2017-Jun-28 18:58N 53°20' E 008°30'0 0.0
2017-Jun-28 18:28N 53°20' E 008°30'0 0.0
2017-Jun-28 17:58N 53°20' E 008°30'0 0.0
2017-Jun-28 17:28N 53°20' E 008°30'0 0.0
2017-Jun-28 16:58N 53°20' E 008°30'0 0.0
2017-Jun-28 16:25N 53°20' E 008°30'1 1.2
2017-Jun-28 16:00N 53°21' E 008°30'510.6
2017-Jun-28 15:31N 53°26' E 008°29'510.7
2017-Jun-28 15:00N 53°31' E 008°32'8 7.8
2017-Jun-28 14:00N 53°38' E 008°27'611.7
2017-Jun-28 13:30N 53°42' E 008°19'612.1
2017-Jun-28 13:00N 53°46' E 008°11'611.6
2017-Jun-28 12:31N 53°50' E 008°05'611.0
2017-Jun-28 12:00N 53°51' E 007°56'511.0
2017-Jun-28 11:30N 53°52' E 007°46'48 8.7
2017-Jun-28 06:01N 53°44' E 006°27'45 7.4
2017-Jun-28 00:00N 53°31' E 005°15'4 8.5
2017-Jun-27 23:30N 53°29' E 005°08'4 8.7
2017-Jun-27 22:59N 53°28' E 005°01'4 8.9
2017-Jun-27 22:30N 53°26' E 004°54'5 9.0
2017-Jun-27 22:00N 53°24' E 004°47'5 8.9
2017-Jun-27 21:30N 53°21' E 004°42'5 9.8
2017-Jun-27 20:59N 53°17' E 004°38'5 9.9
2017-Jun-27 20:30N 53°13' E 004°34'510.3
2017-Jun-27 20:00N 53°08' E 004°30'510.7
2017-Jun-27 19:30N 53°03' E 004°25'510.7
2017-Jun-27 19:00N 52°59' E 004°21'510.8
2017-Jun-27 18:30N 52°54' E 004°18'510.7
2017-Jun-27 18:01N 52°49' E 004°14'510.8
2017-Jun-27 17:31N 52°45' E 004°08'510.9
2017-Jun-27 17:01N 52°41' E 004°02'611.0
2017-Jun-27 16:30N 52°37' E 003°56'510.7
2017-Jun-27 16:00N 52°33' E 003°49'610.3
2017-Jun-27 15:25N 52°29' E 003°43'11 9.6
2017-Jun-27 14:19N 52°21' E 003°30'14 8.6
2017-Jun-27 12:41N 52°11' E 003°14'8 7.9
2017-Jun-27 11:38N 52°05' E 003°05'1 7.7
2017-Jun-27 11:30N 52°04' E 003°04'13 7.1
2017-Jun-27 09:39N 51°54' E 002°50'1 7.7
2017-Jun-27 09:30N 51°54' E 002°49'4 8.0
2017-Jun-27 09:00N 51°51' E 002°45'4 8.4
2017-Jun-27 08:29N 51°47' E 002°40'4 8.8
2017-Jun-27 08:00N 51°44' E 002°36'5 9.2
2017-Jun-27 07:30N 51°41' E 002°31'5 9.7
2017-Jun-27 07:01N 51°37' E 002°26'5 9.9
2017-Jun-27 06:30N 51°33' E 002°21'510.1
2017-Jun-27 06:00N 51°29' E 002°16'510.6
2017-Jun-27 05:30N 51°24' E 002°11'510.7
2017-Jun-27 05:00N 51°20' E 002°08'510.1
2017-Jun-27 04:31N 51°15' E 002°05'510.3
2017-Jun-27 04:01N 51°12' E 001°59'510.4
2017-Jun-27 03:30N 51°09' E 001°52'510.9
2017-Jun-27 03:01N 51°05' E 001°45'611.6
2017-Jun-27 02:30N 51°01' E 001°39'612.0
2017-Jun-27 02:01N 50°56' E 001°33'611.9
2017-Jun-27 01:30N 50°51' E 001°28'611.1
2017-Jun-27 01:00N 50°46' E 001°24'510.1
2017-Jun-27 00:30N 50°42' E 001°20'6 9.8
2017-Jun-26 23:56N 50°38' E 001°14'4 9.4
2017-Jun-26 23:30N 50°35' E 001°10'5 9.7
2017-Jun-26 23:00N 50°32' E 001°04'8 9.6
2017-Jun-26 22:11N 50°27' E 000°54'2 9.8
2017-Jun-26 22:00N 50°26' E 000°51'5 9.7
2017-Jun-26 21:30N 50°25' E 000°44'5 9.1
2017-Jun-26 21:01N 50°24' E 000°37'4 8.7
2017-Jun-26 20:31N 50°23' E 000°30'4 8.1
2017-Jun-26 20:00N 50°22' E 000°24'4 7.7
2017-Jun-26 19:30N 50°21' E 000°18'4 7.3
2017-Jun-26 19:00N 50°20' E 000°13'4 7.1
2017-Jun-26 18:30N 50°19' E 000°08'3 7.0
2017-Jun-26 18:00N 50°18' E 000°02'3 6.7
2017-Jun-26 17:30N 50°17' W 000°03'3 6.6
2017-Jun-26 17:01N 50°16' W 000°08'3 6.7
2017-Jun-26 16:30N 50°15' W 000°13'4 6.9
2017-Jun-26 15:56N 50°14' W 000°19'3 6.7
2017-Jun-26 15:30N 50°14' W 000°23'3 6.7
2017-Jun-26 15:00N 50°13' W 000°28'3 6.9
2017-Jun-26 14:30N 50°12' W 000°33'8 7.5
2017-Jun-26 13:31N 50°10' W 000°45'4 8.6
2017-Jun-26 13:00N 50°09' W 000°51'5 9.5
2017-Jun-26 12:30N 50°07' W 000°58'510.3
2017-Jun-26 12:00N 50°06' W 001°06'611.3
2017-Jun-26 11:30N 50°05' W 001°15'612.1
2017-Jun-26 11:00N 50°03' W 001°24'612.7
2017-Jun-26 10:31N 50°01' W 001°33'713.5
2017-Jun-26 10:00N 49°59' W 001°43'713.7
2017-Jun-26 09:30N 49°58' W 001°54'713.7
2017-Jun-26 08:58N 49°56' W 002°05'913.0
2017-Jun-26 08:17N 49°54' W 002°18'312.5
2017-Jun-26 08:00N 49°53' W 002°23'612.1
2017-Jun-26 07:28N 49°51' W 002°33'711.4
2017-Jun-26 06:53N 49°49' W 002°43'411.1
2017-Jun-26 06:30N 49°48' W 002°49'510.6
2017-Jun-26 06:00N 49°46' W 002°56'610.2
2017-Jun-26 05:24N 49°42' W 003°05'4 9.8
2017-Jun-26 05:00N 49°40' W 003°10'5 9.5
2017-Jun-26 04:26N 49°38' W 003°17'22 8.1
2017-Jun-26 01:39N 49°27' W 003°47'1 7.3
2017-Jun-26 01:27N 49°26' W 003°49'5 7.5
2017-Jun-26 00:49N 49°24' W 003°55'3 7.2
2017-Jun-26 00:25N 49°22' W 003°59'3 7.2
2017-Jun-26 00:00N 49°21' W 004°03'4 7.3
2017-Jun-25 23:30N 49°19' W 004°08'4 7.5
2017-Jun-25 23:00N 49°17' W 004°13'4 7.7
2017-Jun-25 22:30N 49°15' W 004°18'5 8.0
2017-Jun-25 21:53N 49°12' W 004°24'3 8.5
2017-Jun-25 21:30N 49°11' W 004°29'4 8.8
2017-Jun-25 21:00N 49°08' W 004°35'5 9.3
2017-Jun-25 20:30N 49°06' W 004°41'5 9.6
2017-Jun-25 20:00N 49°04' W 004°47'910.2
2017-Jun-25 19:07N 48°59' W 004°59'110.3
2017-Jun-25 19:00N 48°59' W 005°00'611.0
2017-Jun-25 18:30N 48°56' W 005°08'611.1
2017-Jun-25 17:59N 48°53' W 005°16'510.9
2017-Jun-25 17:30N 48°51' W 005°22'611.6
2017-Jun-25 16:58N 48°47' W 005°31'  
2017-Jun-22 02:36N 39°51' W 009°26'110.0
2017-Jun-22 02:30N 39°50' W 009°27'2110.1
2017-Jun-22 00:28N 39°33' W 009°41'5 9.6
2017-Jun-21 23:57N 39°28' W 009°43'4 9.5
2017-Jun-21 23:30N 39°23' W 009°43'510.5
2017-Jun-21 23:00N 39°18' W 009°43'510.2
2017-Jun-21 22:30N 39°13' W 009°43'510.1
2017-Jun-21 22:01N 39°08' W 009°43'5 9.8
2017-Jun-21 21:31N 39°03' W 009°43'510.0
2017-Jun-21 21:00N 38°58' W 009°43'5 9.9
2017-Jun-21 20:30N 38°53' W 009°43'5 9.5
2017-Jun-21 20:00N 38°49' W 009°43'510.1
2017-Jun-21 19:30N 38°44' W 009°42'4 9.0
2017-Jun-21 19:00N 38°39' W 009°40'510.1
2017-Jun-21 18:30N 38°39' W 009°34'5 9.8
2017-Jun-21 18:00N 38°38' W 009°28'5 9.8
2017-Jun-21 17:30N 38°38' W 009°22'612.4
2017-Jun-21 17:00N 38°41' W 009°15'611.9
2017-Jun-21 16:30N 38°42' W 009°07'2 3.4
2017-Jun-21 15:57N 38°44' W 009°06'0 0.0
2017-Jun-21 15:30N 38°44' W 009°06'0 0.0
2017-Jun-21 15:00N 38°44' W 009°06'0 0.0
2017-Jun-21 14:30N 38°44' W 009°06'0 0.0
2017-Jun-21 13:30N 38°44' W 009°06'0 0.0
2017-Jun-21 13:00N 38°44' W 009°06'0 0.0
2017-Jun-21 12:30N 38°44' W 009°06'0 0.0
2017-Jun-21 12:00N 38°44' W 009°06'0 0.0
2017-Jun-21 11:30N 38°44' W 009°06'0 0.0
2017-Jun-21 11:00N 38°44' W 009°06'0 0.0
2017-Jun-21 10:30N 38°44' W 009°06'0 0.0
2017-Jun-21 09:51N 38°44' W 009°06'0 0.0
2017-Jun-21 09:27N 38°44' W 009°06'0 0.0
2017-Jun-21 09:00N 38°44' W 009°06'0 0.0
2017-Jun-21 08:27N 38°44' W 009°06'0 0.0
2017-Jun-21 08:00N 38°44' W 009°06'0 0.0
2017-Jun-21 07:30N 38°44' W 009°06'0 0.0
2017-Jun-21 07:00N 38°44' W 009°06'0 0.0
2017-Jun-21 06:30N 38°44' W 009°06'0 0.0
2017-Jun-21 06:00N 38°44' W 009°06'0 0.0
2017-Jun-21 05:30N 38°44' W 009°06'0 0.0
2017-Jun-21 05:00N 38°44' W 009°06'0 0.0
2017-Jun-21 04:27N 38°44' W 009°06'0 0.0
2017-Jun-21 04:00N 38°44' W 009°06'0 0.0
2017-Jun-21 03:30N 38°44' W 009°06'0 0.0
2017-Jun-21 02:57N 38°44' W 009°06'0 0.0
2017-Jun-21 02:24N 38°44' W 009°06'0 0.0
2017-Jun-21 02:00N 38°44' W 009°06'0 0.0
2017-Jun-21 01:30N 38°44' W 009°06'0 0.0
2017-Jun-21 01:00N 38°44' W 009°06'1 2.3
2017-Jun-21 00:30N 38°43' W 009°07'5 9.7
2017-Jun-20 23:59N 38°41' W 009°13'3 5.3
2017-Jun-20 23:30N 38°41' W 009°16'3 6.3
2017-Jun-20 23:00N 38°39' W 009°19'3 5.7
2017-Jun-20 22:30N 38°38' W 009°22'2 4.1
2017-Jun-20 22:00N 38°39' W 009°24'2 3.0
2017-Jun-20 21:30N 38°40' W 009°24'0 0.0
2017-Jun-20 21:00N 38°40' W 009°24'0 0.0
2017-Jun-20 20:30N 38°40' W 009°24'0 0.0
2017-Jun-20 20:00N 38°40' W 009°24'0 0.0
2017-Jun-20 19:30N 38°40' W 009°24'0 0.0
2017-Jun-20 19:00N 38°40' W 009°24'0 0.0
2017-Jun-20 18:30N 38°40' W 009°24'0 0.0
2017-Jun-20 18:00N 38°40' W 009°24'0 0.0
2017-Jun-20 17:30N 38°40' W 009°24'0 0.0
2017-Jun-20 17:00N 38°40' W 009°24'0 0.0
2017-Jun-20 16:30N 38°40' W 009°24'0 0.1
2017-Jun-20 16:00N 38°40' W 009°24'0 0.0
2017-Jun-20 15:30N 38°40' W 009°24'0 0.0
2017-Jun-20 15:00N 38°40' W 009°24'0 0.0
2017-Jun-20 14:30N 38°40' W 009°24'0 0.0
2017-Jun-20 13:30N 38°40' W 009°24'0 0.0
2017-Jun-20 13:00N 38°40' W 009°24'0 0.0
2017-Jun-20 12:30N 38°40' W 009°24'0 0.0
2017-Jun-20 12:00N 38°40' W 009°24'0 0.0
2017-Jun-20 11:30N 38°40' W 009°24'0 0.0
2017-Jun-20 11:00N 38°40' W 009°24'0 0.0
2017-Jun-20 10:30N 38°40' W 009°24'0 0.1
2017-Jun-20 10:00N 38°40' W 009°24'0 0.0
2017-Jun-20 09:30N 38°40' W 009°24'0 0.0
2017-Jun-20 08:57N 38°40' W 009°24'0 0.0
2017-Jun-20 08:30N 38°40' W 009°24'0 0.0
2017-Jun-20 08:00N 38°40' W 009°24'0 0.0
2017-Jun-20 07:30N 38°40' W 009°24'0 0.0
2017-Jun-20 07:00N 38°40' W 009°24'0 0.0
2017-Jun-20 06:30N 38°40' W 009°24'0 0.0
2017-Jun-20 06:00N 38°40' W 009°24'0 0.0
2017-Jun-20 05:30N 38°40' W 009°24'0 0.0
2017-Jun-20 05:00N 38°40' W 009°24'0 0.0
2017-Jun-20 04:30N 38°40' W 009°24'0 0.0
2017-Jun-20 04:00N 38°40' W 009°24'0 0.0
2017-Jun-20 03:30N 38°40' W 009°24'0 0.0
2017-Jun-20 03:00N 38°40' W 009°24'0 0.0
2017-Jun-20 02:30N 38°40' W 009°24'0 0.0
2017-Jun-20 02:00N 38°40' W 009°24'0 0.1
2017-Jun-20 01:30N 38°40' W 009°24'0 0.0
2017-Jun-20 01:00N 38°40' W 009°24'0 0.0
2017-Jun-20 00:30N 38°40' W 009°24'0 0.0
2017-Jun-20 00:00N 38°40' W 009°24'0 0.1
2017-Jun-19 23:30N 38°40' W 009°24'0 0.0
2017-Jun-19 23:00N 38°40' W 009°24'0 0.0
2017-Jun-19 22:30N 38°40' W 009°24'0 0.0
2017-Jun-19 22:00N 38°40' W 009°24'0 0.0
2017-Jun-19 21:30N 38°40' W 009°24'0 0.0
2017-Jun-19 21:00N 38°40' W 009°24'0 0.0
2017-Jun-19 20:30N 38°40' W 009°24'0 0.0
2017-Jun-19 20:00N 38°40' W 009°24'0 0.0
2017-Jun-19 19:30N 38°40' W 009°24'0 0.0
2017-Jun-19 19:00N 38°40' W 009°24'0 0.0
2017-Jun-19 18:30N 38°40' W 009°24'0 0.0
2017-Jun-19 18:00N 38°40' W 009°24'0 0.0
2017-Jun-19 17:30N 38°40' W 009°24'0 0.0
2017-Jun-19 17:00N 38°40' W 009°24'0 0.1
2017-Jun-19 16:30N 38°40' W 009°24'0 0.0
2017-Jun-19 16:00N 38°40' W 009°24'0 0.0
2017-Jun-19 15:30N 38°40' W 009°24'0 0.0
2017-Jun-19 15:00N 38°40' W 009°24'0 0.0
2017-Jun-19 14:00N 38°40' W 009°24'0 0.1
2017-Jun-19 13:30N 38°40' W 009°24'0 0.0
2017-Jun-19 13:00N 38°40' W 009°24'0 0.1
2017-Jun-19 12:30N 38°40' W 009°24'0 0.0
2017-Jun-19 12:00N 38°40' W 009°24'0 0.0
2017-Jun-19 11:30N 38°40' W 009°24'0 0.1
2017-Jun-19 11:00N 38°40' W 009°24'0 0.1
2017-Jun-19 10:30N 38°40' W 009°24'0 0.0
2017-Jun-19 10:00N 38°40' W 009°24'0 0.0
2017-Jun-19 09:30N 38°40' W 009°24'0 0.0
2017-Jun-19 09:00N 38°40' W 009°24'0 0.0
2017-Jun-19 08:30N 38°40' W 009°24'0 0.0
2017-Jun-19 08:00N 38°40' W 009°24'0 0.0
2017-Jun-19 07:30N 38°40' W 009°24'0 0.0
2017-Jun-19 07:00N 38°40' W 009°24'0 0.0
2017-Jun-19 06:30N 38°40' W 009°24'0 0.0
2017-Jun-19 06:00N 38°40' W 009°24'0 0.1
2017-Jun-19 05:30N 38°40' W 009°24'0 0.1
2017-Jun-19 05:00N 38°40' W 009°24'0 0.0
2017-Jun-19 04:30N 38°40' W 009°24'0 0.0
2017-Jun-19 04:00N 38°40' W 009°24'0 0.0
2017-Jun-19 03:30N 38°40' W 009°24'0 0.1
2017-Jun-19 03:00N 38°40' W 009°24'0 0.0
2017-Jun-19 02:30N 38°40' W 009°24'0 0.0
2017-Jun-19 02:00N 38°40' W 009°24'  

Dump ship's entire track history